sensor_id;sensor_type;location;lat;lon;timestamp;P1;durP1;ratioP1;P2;durP2;ratioP2
68475;SDS011;55464;48.266;14.188;2023-08-24T00:01:08;12.65;;;7.30;;
68475;SDS011;55464;48.266;14.188;2023-08-24T00:03:34;9.10;;;6.70;;
68475;SDS011;55464;48.266;14.188;2023-08-24T00:06:00;9.18;;;6.55;;
68475;SDS011;55464;48.266;14.188;2023-08-24T00:08:25;10.52;;;6.72;;
68475;SDS011;55464;48.266;14.188;2023-08-24T00:10:52;8.30;;;5.68;;
68475;SDS011;55464;48.266;14.188;2023-08-24T00:13:17;9.38;;;6.03;;
68475;SDS011;55464;48.266;14.188;2023-08-24T00:15:44;9.23;;;6.45;;
68475;SDS011;55464;48.266;14.188;2023-08-24T00:18:10;11.00;;;6.47;;
68475;SDS011;55464;48.266;14.188;2023-08-24T00:20:36;9.07;;;7.03;;
68475;SDS011;55464;48.266;14.188;2023-08-24T00:23:02;15.32;;;7.30;;
68475;SDS011;55464;48.266;14.188;2023-08-24T00:25:28;10.13;;;8.10;;
68475;SDS011;55464;48.266;14.188;2023-08-24T00:27:53;11.93;;;7.85;;
68475;SDS011;55464;48.266;14.188;2023-08-24T00:30:19;10.15;;;7.72;;
68475;SDS011;55464;48.266;14.188;2023-08-24T00:32:45;11.73;;;7.50;;
68475;SDS011;55464;48.266;14.188;2023-08-24T00:35:10;8.57;;;7.32;;
68475;SDS011;55464;48.266;14.188;2023-08-24T00:37:36;12.75;;;7.43;;
68475;SDS011;55464;48.266;14.188;2023-08-24T00:40:03;7.45;;;6.75;;
68475;SDS011;55464;48.266;14.188;2023-08-24T00:42:32;10.43;;;6.75;;
68475;SDS011;55464;48.266;14.188;2023-08-24T00:44:58;11.38;;;6.80;;
68475;SDS011;55464;48.266;14.188;2023-08-24T00:47:23;7.60;;;6.75;;
68475;SDS011;55464;48.266;14.188;2023-08-24T00:49:50;7.53;;;6.57;;
68475;SDS011;55464;48.266;14.188;2023-08-24T00:52:15;9.05;;;7.07;;
68475;SDS011;55464;48.266;14.188;2023-08-24T00:54:41;11.85;;;6.32;;
68475;SDS011;55464;48.266;14.188;2023-08-24T00:57:07;8.35;;;5.85;;
68475;SDS011;55464;48.266;14.188;2023-08-24T00:59:33;8.60;;;6.40;;
68475;SDS011;55464;48.266;14.188;2023-08-24T01:01:59;9.15;;;6.38;;
68475;SDS011;55464;48.266;14.188;2023-08-24T01:04:25;8.45;;;5.60;;
68475;SDS011;55464;48.266;14.188;2023-08-24T01:06:51;10.73;;;6.20;;
68475;SDS011;55464;48.266;14.188;2023-08-24T01:09:17;11.68;;;6.85;;
68475;SDS011;55464;48.266;14.188;2023-08-24T01:17:29;9.68;;;6.05;;
68475;SDS011;55464;48.266;14.188;2023-08-24T01:19:56;13.82;;;6.95;;
68475;SDS011;55464;48.266;14.188;2023-08-24T01:27:23;7.07;;;5.07;;
68475;SDS011;55464;48.266;14.188;2023-08-24T01:29:49;11.52;;;5.88;;
68475;SDS011;55464;48.266;14.188;2023-08-24T01:32:17;7.90;;;5.63;;
68475;SDS011;55464;48.266;14.188;2023-08-24T01:34:43;7.47;;;5.00;;
68475;SDS011;55464;48.266;14.188;2023-08-24T01:37:08;6.35;;;5.38;;
68475;SDS011;55464;48.266;14.188;2023-08-24T01:39:48;6.57;;;5.47;;
68475;SDS011;55464;48.266;14.188;2023-08-24T01:42:21;8.38;;;5.07;;
68475;SDS011;55464;48.266;14.188;2023-08-24T01:44:54;9.18;;;6.00;;
68475;SDS011;55464;48.266;14.188;2023-08-24T01:47:23;7.65;;;5.57;;
68475;SDS011;55464;48.266;14.188;2023-08-24T01:49:50;8.00;;;5.13;;
68475;SDS011;55464;48.266;14.188;2023-08-24T01:52:16;6.85;;;5.88;;
68475;SDS011;55464;48.266;14.188;2023-08-24T01:54:43;5.70;;;5.10;;
68475;SDS011;55464;48.266;14.188;2023-08-24T01:57:09;7.20;;;5.50;;
68475;SDS011;55464;48.266;14.188;2023-08-24T01:59:35;8.63;;;5.78;;
68475;SDS011;55464;48.266;14.188;2023-08-24T02:02:01;7.65;;;5.40;;
68475;SDS011;55464;48.266;14.188;2023-08-24T02:04:26;11.88;;;5.93;;
68475;SDS011;55464;48.266;14.188;2023-08-24T02:06:52;10.82;;;6.43;;
68475;SDS011;55464;48.266;14.188;2023-08-24T02:09:17;12.00;;;6.13;;
68475;SDS011;55464;48.266;14.188;2023-08-24T02:11:43;5.70;;;5.20;;
68475;SDS011;55464;48.266;14.188;2023-08-24T02:14:09;7.22;;;5.65;;
68475;SDS011;55464;48.266;14.188;2023-08-24T02:16:35;9.35;;;6.10;;
68475;SDS011;55464;48.266;14.188;2023-08-24T02:19:01;13.35;;;6.20;;
68475;SDS011;55464;48.266;14.188;2023-08-24T02:21:26;12.50;;;6.50;;
68475;SDS011;55464;48.266;14.188;2023-08-24T02:23:52;10.02;;;5.82;;
68475;SDS011;55464;48.266;14.188;2023-08-24T02:26:17;7.70;;;6.90;;
68475;SDS011;55464;48.266;14.188;2023-08-24T02:28:43;7.60;;;6.80;;
68475;SDS011;55464;48.266;14.188;2023-08-24T02:31:08;14.95;;;9.13;;
68475;SDS011;55464;48.266;14.188;2023-08-24T02:33:34;13.85;;;7.65;;
68475;SDS011;55464;48.266;14.188;2023-08-24T02:36:00;9.65;;;7.85;;
68475;SDS011;55464;48.266;14.188;2023-08-24T02:38:26;9.90;;;7.28;;
68475;SDS011;55464;48.266;14.188;2023-08-24T02:41:01;10.90;;;8.30;;
68475;SDS011;55464;48.266;14.188;2023-08-24T02:43:31;14.05;;;9.30;;
68475;SDS011;55464;48.266;14.188;2023-08-24T02:46:07;11.80;;;8.20;;
68475;SDS011;55464;48.266;14.188;2023-08-24T02:48:34;9.93;;;8.35;;
68475;SDS011;55464;48.266;14.188;2023-08-24T02:51:00;10.20;;;7.90;;
68475;SDS011;55464;48.266;14.188;2023-08-24T02:53:28;11.02;;;7.55;;
68475;SDS011;55464;48.266;14.188;2023-08-24T02:55:54;9.98;;;8.27;;
68475;SDS011;55464;48.266;14.188;2023-08-24T02:58:20;9.80;;;7.70;;
68475;SDS011;55464;48.266;14.188;2023-08-24T03:00:46;9.27;;;7.30;;
68475;SDS011;55464;48.266;14.188;2023-08-24T03:03:12;14.25;;;7.88;;
68475;SDS011;55464;48.266;14.188;2023-08-24T03:05:39;9.43;;;8.00;;
68475;SDS011;55464;48.266;14.188;2023-08-24T03:08:05;14.15;;;7.63;;
68475;SDS011;55464;48.266;14.188;2023-08-24T03:10:31;10.68;;;8.20;;
68475;SDS011;55464;48.266;14.188;2023-08-24T03:13:00;9.20;;;6.97;;
68475;SDS011;55464;48.266;14.188;2023-08-24T03:15:25;8.98;;;7.80;;
68475;SDS011;55464;48.266;14.188;2023-08-24T03:17:51;8.63;;;7.70;;
68475;SDS011;55464;48.266;14.188;2023-08-24T03:20:17;11.55;;;8.10;;
68475;SDS011;55464;48.266;14.188;2023-08-24T03:22:44;8.68;;;7.40;;
68475;SDS011;55464;48.266;14.188;2023-08-24T03:25:09;12.55;;;8.10;;
68475;SDS011;55464;48.266;14.188;2023-08-24T03:27:35;11.32;;;7.57;;
68475;SDS011;55464;48.266;14.188;2023-08-24T03:30:00;11.35;;;7.47;;
68475;SDS011;55464;48.266;14.188;2023-08-24T03:32:27;11.05;;;7.97;;
68475;SDS011;55464;48.266;14.188;2023-08-24T03:34:57;8.90;;;7.50;;
68475;SDS011;55464;48.266;14.188;2023-08-24T03:37:24;9.98;;;7.05;;
68475;SDS011;55464;48.266;14.188;2023-08-24T03:39:49;11.85;;;7.28;;
68475;SDS011;55464;48.266;14.188;2023-08-24T03:42:15;10.32;;;7.13;;
68475;SDS011;55464;48.266;14.188;2023-08-24T03:44:40;9.75;;;7.10;;
68475;SDS011;55464;48.266;14.188;2023-08-24T03:47:06;9.68;;;7.18;;
68475;SDS011;55464;48.266;14.188;2023-08-24T03:49:31;10.07;;;7.63;;
68475;SDS011;55464;48.266;14.188;2023-08-24T03:51:57;13.25;;;7.38;;
68475;SDS011;55464;48.266;14.188;2023-08-24T03:54:22;13.70;;;7.18;;
68475;SDS011;55464;48.266;14.188;2023-08-24T03:56:48;10.60;;;7.32;;
68475;SDS011;55464;48.266;14.188;2023-08-24T03:59:13;9.23;;;6.85;;
68475;SDS011;55464;48.266;14.188;2023-08-24T04:01:39;11.77;;;6.75;;
68475;SDS011;55464;48.266;14.188;2023-08-24T04:04:05;9.63;;;6.72;;
68475;SDS011;55464;48.266;14.188;2023-08-24T04:06:30;8.00;;;6.60;;
68475;SDS011;55464;48.266;14.188;2023-08-24T04:08:56;8.75;;;7.40;;
68475;SDS011;55464;48.266;14.188;2023-08-24T04:11:21;6.95;;;6.25;;
68475;SDS011;55464;48.266;14.188;2023-08-24T04:13:47;8.48;;;7.13;;
68475;SDS011;55464;48.266;14.188;2023-08-24T04:16:12;9.02;;;7.00;;
68475;SDS011;55464;48.266;14.188;2023-08-24T04:18:38;11.05;;;6.78;;
68475;SDS011;55464;48.266;14.188;2023-08-24T04:21:05;8.98;;;6.63;;
68475;SDS011;55464;48.266;14.188;2023-08-24T04:23:31;9.60;;;6.80;;
68475;SDS011;55464;48.266;14.188;2023-08-24T04:25:56;15.20;;;7.35;;
68475;SDS011;55464;48.266;14.188;2023-08-24T04:28:22;13.75;;;7.07;;
68475;SDS011;55464;48.266;14.188;2023-08-24T04:30:57;9.45;;;6.75;;
68475;SDS011;55464;48.266;14.188;2023-08-24T04:33:22;8.63;;;6.50;;
68475;SDS011;55464;48.266;14.188;2023-08-24T04:35:48;7.43;;;6.53;;
68475;SDS011;55464;48.266;14.188;2023-08-24T04:38:15;10.07;;;7.30;;
68475;SDS011;55464;48.266;14.188;2023-08-24T04:40:53;10.68;;;6.80;;
68475;SDS011;55464;48.266;14.188;2023-08-24T04:43:20;10.18;;;6.80;;
68475;SDS011;55464;48.266;14.188;2023-08-24T04:45:51;12.07;;;7.20;;
68475;SDS011;55464;48.266;14.188;2023-08-24T04:48:18;12.65;;;7.82;;
68475;SDS011;55464;48.266;14.188;2023-08-24T04:50:44;10.80;;;7.72;;
68475;SDS011;55464;48.266;14.188;2023-08-24T04:53:11;10.68;;;8.00;;
68475;SDS011;55464;48.266;14.188;2023-08-24T04:55:38;12.90;;;7.20;;
68475;SDS011;55464;48.266;14.188;2023-08-24T04:58:04;11.45;;;8.13;;
68475;SDS011;55464;48.266;14.188;2023-08-24T05:00:29;12.68;;;9.35;;
68475;SDS011;55464;48.266;14.188;2023-08-24T05:02:58;11.73;;;7.78;;
68475;SDS011;55464;48.266;14.188;2023-08-24T05:05:23;9.50;;;8.20;;
68475;SDS011;55464;48.266;14.188;2023-08-24T05:07:49;9.90;;;8.00;;
68475;SDS011;55464;48.266;14.188;2023-08-24T05:10:14;10.23;;;7.95;;
68475;SDS011;55464;48.266;14.188;2023-08-24T05:12:40;11.23;;;7.47;;
68475;SDS011;55464;48.266;14.188;2023-08-24T05:15:05;8.77;;;7.57;;
68475;SDS011;55464;48.266;14.188;2023-08-24T05:17:31;14.32;;;8.32;;
68475;SDS011;55464;48.266;14.188;2023-08-24T05:19:57;9.93;;;7.90;;
68475;SDS011;55464;48.266;14.188;2023-08-24T05:22:23;12.00;;;9.13;;
68475;SDS011;55464;48.266;14.188;2023-08-24T05:24:49;11.88;;;8.35;;
68475;SDS011;55464;48.266;14.188;2023-08-24T05:27:14;10.45;;;8.68;;
68475;SDS011;55464;48.266;14.188;2023-08-24T05:29:41;16.67;;;9.18;;
68475;SDS011;55464;48.266;14.188;2023-08-24T05:32:07;15.57;;;9.65;;
68475;SDS011;55464;48.266;14.188;2023-08-24T05:34:32;14.20;;;8.73;;
68475;SDS011;55464;48.266;14.188;2023-08-24T05:36:58;11.88;;;8.43;;
68475;SDS011;55464;48.266;14.188;2023-08-24T05:39:23;13.68;;;8.07;;
68475;SDS011;55464;48.266;14.188;2023-08-24T05:41:52;10.10;;;7.93;;
68475;SDS011;55464;48.266;14.188;2023-08-24T05:44:21;9.80;;;8.17;;
68475;SDS011;55464;48.266;14.188;2023-08-24T05:46:47;13.43;;;7.50;;
68475;SDS011;55464;48.266;14.188;2023-08-24T05:49:13;12.57;;;7.57;;
68475;SDS011;55464;48.266;14.188;2023-08-24T05:51:38;12.82;;;7.53;;
68475;SDS011;55464;48.266;14.188;2023-08-24T05:54:04;10.85;;;7.10;;
68475;SDS011;55464;48.266;14.188;2023-08-24T05:56:30;13.00;;;7.38;;
68475;SDS011;55464;48.266;14.188;2023-08-24T05:58:56;7.60;;;6.22;;
68475;SDS011;55464;48.266;14.188;2023-08-24T06:01:25;13.30;;;7.53;;
68475;SDS011;55464;48.266;14.188;2023-08-24T06:03:50;10.90;;;7.15;;
68475;SDS011;55464;48.266;14.188;2023-08-24T06:06:16;9.60;;;7.85;;
68475;SDS011;55464;48.266;14.188;2023-08-24T06:08:42;10.05;;;7.20;;
68475;SDS011;55464;48.266;14.188;2023-08-24T06:11:07;12.18;;;7.70;;
68475;SDS011;55464;48.266;14.188;2023-08-24T06:13:33;9.07;;;7.30;;
68475;SDS011;55464;48.266;14.188;2023-08-24T06:15:59;9.38;;;7.43;;
68475;SDS011;55464;48.266;14.188;2023-08-24T06:18:24;7.57;;;6.78;;
68475;SDS011;55464;48.266;14.188;2023-08-24T06:20:50;17.05;;;8.30;;
68475;SDS011;55464;48.266;14.188;2023-08-24T06:23:19;13.57;;;8.63;;
68475;SDS011;55464;48.266;14.188;2023-08-24T06:25:45;8.90;;;7.33;;
68475;SDS011;55464;48.266;14.188;2023-08-24T06:28:11;15.10;;;8.32;;
68475;SDS011;55464;48.266;14.188;2023-08-24T06:30:40;11.60;;;8.27;;
68475;SDS011;55464;48.266;14.188;2023-08-24T06:33:08;9.40;;;7.72;;
68475;SDS011;55464;48.266;14.188;2023-08-24T06:35:35;11.00;;;7.78;;
68475;SDS011;55464;48.266;14.188;2023-08-24T06:38:02;16.50;;;8.63;;
68475;SDS011;55464;48.266;14.188;2023-08-24T06:40:29;11.93;;;8.60;;
68475;SDS011;55464;48.266;14.188;2023-08-24T06:42:55;17.30;;;8.25;;
68475;SDS011;55464;48.266;14.188;2023-08-24T06:45:21;13.50;;;8.18;;
68475;SDS011;55464;48.266;14.188;2023-08-24T06:47:46;17.88;;;10.43;;
68475;SDS011;55464;48.266;14.188;2023-08-24T06:50:12;17.20;;;11.07;;
68475;SDS011;55464;48.266;14.188;2023-08-24T06:52:40;18.10;;;9.77;;
68475;SDS011;55464;48.266;14.188;2023-08-24T06:55:06;17.45;;;11.07;;
68475;SDS011;55464;48.266;14.188;2023-08-24T06:57:33;20.58;;;11.30;;
68475;SDS011;55464;48.266;14.188;2023-08-24T06:59:59;20.55;;;11.95;;
68475;SDS011;55464;48.266;14.188;2023-08-24T07:02:25;20.70;;;14.02;;
68475;SDS011;55464;48.266;14.188;2023-08-24T07:04:50;17.67;;;11.95;;
68475;SDS011;55464;48.266;14.188;2023-08-24T07:07:16;15.40;;;10.93;;
68475;SDS011;55464;48.266;14.188;2023-08-24T07:09:42;17.55;;;11.40;;
68475;SDS011;55464;48.266;14.188;2023-08-24T07:12:08;17.10;;;10.15;;
68475;SDS011;55464;48.266;14.188;2023-08-24T07:14:35;23.30;;;10.75;;
68475;SDS011;55464;48.266;14.188;2023-08-24T07:17:01;23.20;;;10.90;;
68475;SDS011;55464;48.266;14.188;2023-08-24T07:19:27;21.88;;;11.50;;
68475;SDS011;55464;48.266;14.188;2023-08-24T07:21:53;24.75;;;10.85;;
68475;SDS011;55464;48.266;14.188;2023-08-24T07:24:18;22.98;;;9.60;;
68475;SDS011;55464;48.266;14.188;2023-08-24T07:26:45;14.90;;;9.75;;
68475;SDS011;55464;48.266;14.188;2023-08-24T07:29:11;25.02;;;10.93;;
68475;SDS011;55464;48.266;14.188;2023-08-24T07:31:37;25.52;;;10.60;;
68475;SDS011;55464;48.266;14.188;2023-08-24T07:34:02;15.82;;;9.50;;
68475;SDS011;55464;48.266;14.188;2023-08-24T07:36:29;15.77;;;8.20;;
68475;SDS011;55464;48.266;14.188;2023-08-24T07:38:55;11.73;;;8.05;;
68475;SDS011;55464;48.266;14.188;2023-08-24T07:41:21;12.68;;;8.30;;
68475;SDS011;55464;48.266;14.188;2023-08-24T07:43:46;10.73;;;8.18;;
68475;SDS011;55464;48.266;14.188;2023-08-24T07:46:12;12.93;;;7.93;;
68475;SDS011;55464;48.266;14.188;2023-08-24T07:48:37;12.45;;;7.70;;
68475;SDS011;55464;48.266;14.188;2023-08-24T07:51:03;10.70;;;7.90;;
68475;SDS011;55464;48.266;14.188;2023-08-24T07:53:28;12.80;;;7.88;;
68475;SDS011;55464;48.266;14.188;2023-08-24T07:55:54;18.02;;;10.13;;
68475;SDS011;55464;48.266;14.188;2023-08-24T07:58:22;11.82;;;8.55;;
68475;SDS011;55464;48.266;14.188;2023-08-24T08:00:52;17.33;;;9.95;;
68475;SDS011;55464;48.266;14.188;2023-08-24T08:03:18;16.10;;;9.50;;
68475;SDS011;55464;48.266;14.188;2023-08-24T08:05:44;17.15;;;9.70;;
68475;SDS011;55464;48.266;14.188;2023-08-24T08:08:11;14.43;;;9.90;;
68475;SDS011;55464;48.266;14.188;2023-08-24T08:10:36;14.45;;;10.40;;
68475;SDS011;55464;48.266;14.188;2023-08-24T08:13:01;19.33;;;10.65;;
68475;SDS011;55464;48.266;14.188;2023-08-24T08:15:27;25.70;;;11.45;;
68475;SDS011;55464;48.266;14.188;2023-08-24T08:17:52;15.80;;;11.00;;
68475;SDS011;55464;48.266;14.188;2023-08-24T08:20:18;15.00;;;11.30;;
68475;SDS011;55464;48.266;14.188;2023-08-24T08:22:44;18.05;;;11.70;;
68475;SDS011;55464;48.266;14.188;2023-08-24T08:25:09;13.15;;;10.38;;
68475;SDS011;55464;48.266;14.188;2023-08-24T08:27:37;17.67;;;11.55;;
68475;SDS011;55464;48.266;14.188;2023-08-24T08:30:02;14.57;;;11.82;;
68475;SDS011;55464;48.266;14.188;2023-08-24T08:32:30;18.02;;;13.75;;
68475;SDS011;55464;48.266;14.188;2023-08-24T08:34:55;14.52;;;12.13;;
68475;SDS011;55464;48.266;14.188;2023-08-24T08:37:23;19.52;;;12.90;;
68475;SDS011;55464;48.266;14.188;2023-08-24T08:39:49;17.15;;;13.02;;
68475;SDS011;55464;48.266;14.188;2023-08-24T08:42:14;14.82;;;11.25;;
68475;SDS011;55464;48.266;14.188;2023-08-24T08:44:41;17.08;;;12.73;;
68475;SDS011;55464;48.266;14.188;2023-08-24T08:47:09;18.55;;;13.55;;
68475;SDS011;55464;48.266;14.188;2023-08-24T08:49:37;14.88;;;10.63;;
68475;SDS011;55464;48.266;14.188;2023-08-24T08:52:05;17.42;;;12.25;;
68475;SDS011;55464;48.266;14.188;2023-08-24T08:54:31;18.50;;;12.07;;
68475;SDS011;55464;48.266;14.188;2023-08-24T08:56:58;17.98;;;12.45;;
68475;SDS011;55464;48.266;14.188;2023-08-24T08:59:25;17.52;;;11.93;;
68475;SDS011;55464;48.266;14.188;2023-08-24T09:02:00;17.60;;;12.32;;
68475;SDS011;55464;48.266;14.188;2023-08-24T09:04:29;15.93;;;11.20;;
68475;SDS011;55464;48.266;14.188;2023-08-24T09:06:57;16.45;;;11.88;;
68475;SDS011;55464;48.266;14.188;2023-08-24T09:09:26;17.05;;;11.65;;
68475;SDS011;55464;48.266;14.188;2023-08-24T09:11:52;16.45;;;11.43;;
68475;SDS011;55464;48.266;14.188;2023-08-24T09:14:18;13.43;;;10.68;;
68475;SDS011;55464;48.266;14.188;2023-08-24T09:16:44;13.50;;;10.77;;
68475;SDS011;55464;48.266;14.188;2023-08-24T09:19:13;14.45;;;11.38;;
68475;SDS011;55464;48.266;14.188;2023-08-24T09:21:39;16.20;;;10.77;;
68475;SDS011;55464;48.266;14.188;2023-08-24T09:24:06;13.73;;;10.77;;
68475;SDS011;55464;48.266;14.188;2023-08-24T09:26:36;13.80;;;10.25;;
68475;SDS011;55464;48.266;14.188;2023-08-24T09:29:14;17.10;;;10.93;;
68475;SDS011;55464;48.266;14.188;2023-08-24T09:31:40;19.13;;;9.48;;
68475;SDS011;55464;48.266;14.188;2023-08-24T09:34:09;13.73;;;9.82;;
68475;SDS011;55464;48.266;14.188;2023-08-24T09:36:35;14.75;;;9.52;;
68475;SDS011;55464;48.266;14.188;2023-08-24T09:39:02;14.55;;;9.85;;
68475;SDS011;55464;48.266;14.188;2023-08-24T09:41:38;15.40;;;9.60;;
68475;SDS011;55464;48.266;14.188;2023-08-24T09:44:05;12.60;;;8.55;;
68475;SDS011;55464;48.266;14.188;2023-08-24T09:46:32;13.75;;;9.07;;
68475;SDS011;55464;48.266;14.188;2023-08-24T09:48:57;12.82;;;9.15;;
68475;SDS011;55464;48.266;14.188;2023-08-24T09:51:28;13.02;;;8.15;;
68475;SDS011;55464;48.266;14.188;2023-08-24T09:53:56;10.15;;;7.70;;
68475;SDS011;55464;48.266;14.188;2023-08-24T09:56:27;15.63;;;8.75;;
68475;SDS011;55464;48.266;14.188;2023-08-24T09:58:54;9.10;;;7.10;;
68475;SDS011;55464;48.266;14.188;2023-08-24T10:01:20;10.73;;;7.88;;
68475;SDS011;55464;48.266;14.188;2023-08-24T10:03:50;12.10;;;7.93;;
68475;SDS011;55464;48.266;14.188;2023-08-24T10:06:21;13.43;;;8.60;;
68475;SDS011;55464;48.266;14.188;2023-08-24T10:08:50;10.15;;;8.18;;
68475;SDS011;55464;48.266;14.188;2023-08-24T10:11:21;14.20;;;7.60;;
68475;SDS011;55464;48.266;14.188;2023-08-24T10:13:53;9.57;;;7.13;;
68475;SDS011;55464;48.266;14.188;2023-08-24T10:16:27;16.02;;;8.25;;
68475;SDS011;55464;48.266;14.188;2023-08-24T10:18:55;10.18;;;7.20;;
68475;SDS011;55464;48.266;14.188;2023-08-24T10:21:20;11.65;;;7.80;;
68475;SDS011;55464;48.266;14.188;2023-08-24T10:23:50;11.80;;;6.90;;
68475;SDS011;55464;48.266;14.188;2023-08-24T10:26:18;10.85;;;7.50;;
68475;SDS011;55464;48.266;14.188;2023-08-24T10:28:46;9.32;;;7.80;;
68475;SDS011;55464;48.266;14.188;2023-08-24T10:31:12;7.68;;;6.40;;
68475;SDS011;55464;48.266;14.188;2023-08-24T10:33:38;8.30;;;5.80;;
68475;SDS011;55464;48.266;14.188;2023-08-24T10:36:05;8.95;;;6.43;;
68475;SDS011;55464;48.266;14.188;2023-08-24T10:38:34;9.23;;;6.65;;
68475;SDS011;55464;48.266;14.188;2023-08-24T10:41:05;8.57;;;6.30;;
68475;SDS011;55464;48.266;14.188;2023-08-24T10:43:34;8.65;;;5.72;;
68475;SDS011;55464;48.266;14.188;2023-08-24T10:46:01;7.75;;;5.22;;
68475;SDS011;55464;48.266;14.188;2023-08-24T10:48:29;6.68;;;5.75;;
68475;SDS011;55464;48.266;14.188;2023-08-24T10:53:48;5.78;;;5.22;;
68475;SDS011;55464;48.266;14.188;2023-08-24T10:56:17;8.25;;;5.28;;
68475;SDS011;55464;48.266;14.188;2023-08-24T10:58:43;6.85;;;5.30;;
68475;SDS011;55464;48.266;14.188;2023-08-24T11:01:19;5.70;;;4.65;;
68475;SDS011;55464;48.266;14.188;2023-08-24T11:03:49;9.00;;;6.03;;
68475;SDS011;55464;48.266;14.188;2023-08-24T11:06:22;11.63;;;6.05;;
68475;SDS011;55464;48.266;14.188;2023-08-24T11:09:04;7.30;;;5.43;;
68475;SDS011;55464;48.266;14.188;2023-08-24T11:11:31;7.55;;;5.82;;
68475;SDS011;55464;48.266;14.188;2023-08-24T11:14:13;8.15;;;5.38;;
68475;SDS011;55464;48.266;14.188;2023-08-24T11:16:47;7.28;;;5.10;;
68475;SDS011;55464;48.266;14.188;2023-08-24T11:19:13;6.75;;;4.97;;
68475;SDS011;55464;48.266;14.188;2023-08-24T11:21:40;9.30;;;5.30;;
68475;SDS011;55464;48.266;14.188;2023-08-24T11:26:41;7.93;;;5.90;;
68475;SDS011;55464;48.266;14.188;2023-08-24T11:29:13;8.18;;;4.68;;
68475;SDS011;55464;48.266;14.188;2023-08-24T11:31:46;12.13;;;7.18;;
68475;SDS011;55464;48.266;14.188;2023-08-24T11:34:14;11.50;;;7.20;;
68475;SDS011;55464;48.266;14.188;2023-08-24T11:36:45;7.75;;;4.80;;
68475;SDS011;55464;48.266;14.188;2023-08-24T11:39:19;5.10;;;4.40;;
68475;SDS011;55464;48.266;14.188;2023-08-24T11:44:28;6.05;;;5.05;;
68475;SDS011;55464;48.266;14.188;2023-08-24T11:46:58;7.05;;;4.82;;
68475;SDS011;55464;48.266;14.188;2023-08-24T11:49:24;7.55;;;5.13;;
68475;SDS011;55464;48.266;14.188;2023-08-24T11:51:50;9.98;;;4.65;;
68475;SDS011;55464;48.266;14.188;2023-08-24T11:54:17;9.27;;;5.10;;
68475;SDS011;55464;48.266;14.188;2023-08-24T11:56:44;5.78;;;5.18;;
68475;SDS011;55464;48.266;14.188;2023-08-24T11:59:12;9.23;;;5.55;;
68475;SDS011;55464;48.266;14.188;2023-08-24T12:01:39;7.25;;;5.05;;
68475;SDS011;55464;48.266;14.188;2023-08-24T12:04:06;9.40;;;5.18;;
68475;SDS011;55464;48.266;14.188;2023-08-24T12:06:31;13.13;;;5.63;;
68475;SDS011;55464;48.266;14.188;2023-08-24T12:08:58;8.63;;;5.03;;
68475;SDS011;55464;48.266;14.188;2023-08-24T12:11:23;10.27;;;5.35;;
68475;SDS011;55464;48.266;14.188;2023-08-24T12:13:52;6.28;;;5.05;;
68475;SDS011;55464;48.266;14.188;2023-08-24T12:16:19;8.65;;;5.55;;
68475;SDS011;55464;48.266;14.188;2023-08-24T12:18:50;7.35;;;4.70;;
68475;SDS011;55464;48.266;14.188;2023-08-24T12:21:16;6.78;;;5.10;;
68475;SDS011;55464;48.266;14.188;2023-08-24T12:23:42;12.60;;;5.45;;
68475;SDS011;55464;48.266;14.188;2023-08-24T12:26:07;9.93;;;5.70;;
68475;SDS011;55464;48.266;14.188;2023-08-24T12:28:33;5.22;;;4.68;;
68475;SDS011;55464;48.266;14.188;2023-08-24T12:30:59;9.10;;;5.15;;
68475;SDS011;55464;48.266;14.188;2023-08-24T12:33:29;7.60;;;4.90;;
68475;SDS011;55464;48.266;14.188;2023-08-24T12:35:56;7.57;;;4.68;;
68475;SDS011;55464;48.266;14.188;2023-08-24T12:38:24;5.43;;;4.70;;
68475;SDS011;55464;48.266;14.188;2023-08-24T12:40:50;7.18;;;4.50;;
68475;SDS011;55464;48.266;14.188;2023-08-24T12:43:16;6.28;;;5.10;;
68475;SDS011;55464;48.266;14.188;2023-08-24T12:45:42;6.78;;;4.50;;
68475;SDS011;55464;48.266;14.188;2023-08-24T12:48:08;8.45;;;4.75;;
68475;SDS011;55464;48.266;14.188;2023-08-24T12:50:34;8.43;;;5.22;;
68475;SDS011;55464;48.266;14.188;2023-08-24T12:53:00;10.07;;;4.60;;
68475;SDS011;55464;48.266;14.188;2023-08-24T12:55:27;7.68;;;4.72;;
68475;SDS011;55464;48.266;14.188;2023-08-24T12:57:53;11.18;;;4.95;;
68475;SDS011;55464;48.266;14.188;2023-08-24T13:00:18;5.47;;;4.45;;
68475;SDS011;55464;48.266;14.188;2023-08-24T13:02:46;8.68;;;5.43;;
68475;SDS011;55464;48.266;14.188;2023-08-24T13:05:11;8.02;;;4.93;;
68475;SDS011;55464;48.266;14.188;2023-08-24T13:07:37;10.38;;;5.28;;
68475;SDS011;55464;48.266;14.188;2023-08-24T13:10:03;5.75;;;4.68;;
68475;SDS011;55464;48.266;14.188;2023-08-24T13:12:31;8.23;;;5.10;;
68475;SDS011;55464;48.266;14.188;2023-08-24T13:14:57;7.72;;;5.07;;
68475;SDS011;55464;48.266;14.188;2023-08-24T13:17:22;6.47;;;4.72;;
68475;SDS011;55464;48.266;14.188;2023-08-24T13:19:48;11.38;;;5.57;;
68475;SDS011;55464;48.266;14.188;2023-08-24T13:22:16;7.80;;;4.93;;
68475;SDS011;55464;48.266;14.188;2023-08-24T13:24:42;9.50;;;4.30;;
68475;SDS011;55464;48.266;14.188;2023-08-24T13:27:10;7.07;;;4.50;;
68475;SDS011;55464;48.266;14.188;2023-08-24T13:29:36;6.82;;;4.43;;
68475;SDS011;55464;48.266;14.188;2023-08-24T13:32:02;8.13;;;4.72;;
68475;SDS011;55464;48.266;14.188;2023-08-24T13:34:28;10.48;;;4.35;;
68475;SDS011;55464;48.266;14.188;2023-08-24T13:36:53;8.45;;;4.60;;
68475;SDS011;55464;48.266;14.188;2023-08-24T13:39:19;5.20;;;4.55;;
68475;SDS011;55464;48.266;14.188;2023-08-24T13:41:44;8.40;;;4.82;;
68475;SDS011;55464;48.266;14.188;2023-08-24T13:44:10;6.75;;;4.38;;
68475;SDS011;55464;48.266;14.188;2023-08-24T13:46:35;6.43;;;4.38;;
68475;SDS011;55464;48.266;14.188;2023-08-24T13:49:01;5.20;;;4.18;;
68475;SDS011;55464;48.266;14.188;2023-08-24T13:51:27;10.18;;;4.20;;
68475;SDS011;55464;48.266;14.188;2023-08-24T13:53:53;11.98;;;4.88;;
68475;SDS011;55464;48.266;14.188;2023-08-24T13:56:19;8.65;;;3.80;;
68475;SDS011;55464;48.266;14.188;2023-08-24T13:58:45;7.38;;;4.07;;
68475;SDS011;55464;48.266;14.188;2023-08-24T14:01:11;5.32;;;4.50;;
68475;SDS011;55464;48.266;14.188;2023-08-24T14:03:38;4.45;;;4.05;;
68475;SDS011;55464;48.266;14.188;2023-08-24T14:06:05;7.30;;;4.88;;
68475;SDS011;55464;48.266;14.188;2023-08-24T14:08:30;5.32;;;4.38;;
68475;SDS011;55464;48.266;14.188;2023-08-24T14:10:56;6.78;;;4.13;;
68475;SDS011;55464;48.266;14.188;2023-08-24T14:13:22;8.23;;;3.88;;
68475;SDS011;55464;48.266;14.188;2023-08-24T14:15:50;8.10;;;4.13;;
68475;SDS011;55464;48.266;14.188;2023-08-24T14:18:15;6.18;;;4.50;;
68475;SDS011;55464;48.266;14.188;2023-08-24T14:20:42;5.93;;;4.20;;
68475;SDS011;55464;48.266;14.188;2023-08-24T14:23:08;7.38;;;3.80;;
68475;SDS011;55464;48.266;14.188;2023-08-24T14:25:34;4.05;;;3.53;;
68475;SDS011;55464;48.266;14.188;2023-08-24T14:28:00;5.40;;;4.40;;
68475;SDS011;55464;48.266;14.188;2023-08-24T14:30:26;8.18;;;3.88;;
68475;SDS011;55464;48.266;14.188;2023-08-24T14:32:51;9.00;;;3.78;;
68475;SDS011;55464;48.266;14.188;2023-08-24T14:35:17;5.15;;;3.67;;
68475;SDS011;55464;48.266;14.188;2023-08-24T14:37:42;4.63;;;3.58;;
68475;SDS011;55464;48.266;14.188;2023-08-24T14:40:08;6.47;;;3.97;;
68475;SDS011;55464;48.266;14.188;2023-08-24T14:42:35;4.93;;;3.85;;